| Back to River Map | <<< Previous Forecast Point | | | Next Forecast Point >>> | Printer Version | Graph Version |  |
|
SMITH RIVER - DOCTOR FINE BRIDGE (FTDC1)
| Latitude: 41.88º N | Longitude: 124.14º W | Elevation: 0 Feet | | Forecast Type: Official Location |
| Location: Del Norte County in California | Bulletin Group: North Coast | River Group: North Coast |
| Issuance Time: | Sep 05 2026 at 7:03 AM PDT | Next Issuance: | Sep 06 2026 at 9:00 AM PDT
| |
| Action: 27.0 Feet | Minor Flood: 33.0 Feet | Moderate Flood: 36.0 Feet | Major Flood: 39.0 Feet |
# Tabular Observed and Forecast Hydrograph Information
#
# Location: Smith River - Doctor Fine Bridge (FTDC1)
#
# File Generation Time: 09/05/2026 at 07:03 AM PDT
# Data Interval: 1 Hour
#
# Most Recent Date & Time of Maximum Observed: 09/03/2026 at 02:00 PM PDT
# Maximum Observed Stage: 12.09 Feet
# Maximum Observed Flow: 638 cfs
#
# Earliest Date & Time of Maximum Forecast: 09/05/2026 at 07:00 AM PDT
# Maximum Forecast Stage: 11.44 Feet
# Maximum Forecast Flow: 125 cfs
#
# OBSERVED
#
# Date & Time (Local) Stage (Feet) Flow (cfs) Trend Observed Status
# ---------------------------------------------------------------------------------
08/31/2026 07 AM PDT 11.09 38 Normal
08/31/2026 08 AM PDT 11.08 36 - Normal
08/31/2026 09 AM PDT 11.08 36 0 Normal
08/31/2026 10 AM PDT 11.08 36 0 Normal
08/31/2026 11 AM PDT 11.08 36 0 Normal
08/31/2026 12 PM PDT 11.08 36 0 Normal
08/31/2026 01 PM PDT 11.09 38 + Normal
08/31/2026 02 PM PDT 11.08 36 - Normal
08/31/2026 03 PM PDT 11.09 38 + Normal
08/31/2026 04 PM PDT 11.08 36 - Normal
08/31/2026 05 PM PDT 11.09 38 + Normal
08/31/2026 06 PM PDT 11.08 36 - Normal
08/31/2026 07 PM PDT 11.08 36 0 Normal
08/31/2026 08 PM PDT 11.08 36 0 Normal
08/31/2026 09 PM PDT 11.08 36 0 Normal
08/31/2026 10 PM PDT 11.08 36 0 Normal
08/31/2026 11 PM PDT 11.09 38 + Normal
09/01/2026 12 AM PDT 11.09 38 0 Normal
09/01/2026 01 AM PDT 11.09 38 0 Normal
09/01/2026 02 AM PDT 11.09 38 0 Normal
09/01/2026 03 AM PDT 11.09 38 0 Normal
09/01/2026 04 AM PDT 11.09 38 0 Normal
09/01/2026 05 AM PDT 11.09 38 0 Normal
09/01/2026 06 AM PDT 11.09 38 0 Normal
09/01/2026 07 AM PDT 11.09 38 0 Normal
09/01/2026 08 AM PDT 11.09 38 0 Normal
09/01/2026 09 AM PDT 11.09 38 0 Normal
09/01/2026 10 AM PDT 11.10 39 + Normal
09/01/2026 11 AM PDT 11.09 38 - Normal
09/01/2026 12 PM PDT 11.10 39 + Normal
09/01/2026 01 PM PDT 11.10 39 0 Normal
09/01/2026 02 PM PDT 11.09 38 - Normal
09/01/2026 03 PM PDT 11.08 36 - Normal
09/01/2026 04 PM PDT 11.09 38 + Normal
09/01/2026 05 PM PDT 11.08 36 - Normal
09/01/2026 06 PM PDT 11.08 36 0 Normal
09/01/2026 07 PM PDT 11.08 36 0 Normal
09/01/2026 08 PM PDT 11.08 36 0 Normal
09/01/2026 09 PM PDT 11.08 36 0 Normal
09/01/2026 10 PM PDT 11.08 36 0 Normal
09/01/2026 11 PM PDT 11.08 36 0 Normal
09/02/2026 12 AM PDT 11.08 36 0 Normal
09/02/2026 01 AM PDT 11.09 38 + Normal
09/02/2026 02 AM PDT 11.09 38 0 Normal
09/02/2026 03 AM PDT 11.09 38 0 Normal
09/02/2026 04 AM PDT 11.09 38 0 Normal
09/02/2026 05 AM PDT 11.09 38 0 Normal
09/02/2026 06 AM PDT 11.09 38 0 Normal
09/02/2026 07 AM PDT 11.09 38 0 Normal
09/02/2026 08 AM PDT 11.09 38 0 Normal
09/02/2026 09 AM PDT 11.10 39 + Normal
09/02/2026 10 AM PDT 11.12 42 + Normal
09/02/2026 11 AM PDT 11.14 45 + Normal
09/02/2026 12 PM PDT 11.15 46 + Normal
09/02/2026 01 PM PDT 11.17 50 + Normal
09/02/2026 02 PM PDT 11.19 53 + Normal
09/02/2026 03 PM PDT 11.22 59 + Normal
09/02/2026 04 PM PDT 11.26 68 + Normal
09/02/2026 05 PM PDT 11.28 73 + Normal
09/02/2026 06 PM PDT 11.30 78 + Normal
09/02/2026 07 PM PDT 11.30 78 0 Normal
09/02/2026 08 PM PDT 11.30 78 0 Normal
09/02/2026 09 PM PDT 11.32 83 + Normal
09/02/2026 10 PM PDT 11.34 89 + Normal
09/02/2026 11 PM PDT 11.36 96 + Normal
09/03/2026 12 AM PDT 11.39 106 + Normal
09/03/2026 01 AM PDT 11.42 117 + Normal
09/03/2026 02 AM PDT 11.46 134 + Normal
09/03/2026 03 AM PDT 11.51 159 + Normal
09/03/2026 04 AM PDT 11.57 194 + Normal
09/03/2026 05 AM PDT 11.62 230 + Normal
09/03/2026 06 AM PDT 11.67 272 + Normal
09/03/2026 07 AM PDT 11.72 312 + Normal
09/03/2026 08 AM PDT 11.77 344 + Normal
09/03/2026 09 AM PDT 11.84 394 + Normal
09/03/2026 10 AM PDT 11.93 469 + Normal
09/03/2026 11 AM PDT 12.00 537 + Normal
09/03/2026 12 PM PDT 12.05 591 + Normal
09/03/2026 01 PM PDT 12.08 626 + Normal
09/03/2026 02 PM PDT 12.09 638 + Normal
09/03/2026 03 PM PDT 12.08 626 - Normal
09/03/2026 04 PM PDT 12.06 602 - Normal
09/03/2026 05 PM PDT 12.02 558 - Normal
09/03/2026 06 PM PDT 11.99 527 - Normal
09/03/2026 07 PM PDT 11.96 497 - Normal
09/03/2026 08 PM PDT 11.93 469 - Normal
09/03/2026 09 PM PDT 11.90 443 - Normal
09/03/2026 10 PM PDT 11.87 418 - Normal
09/03/2026 11 PM PDT 11.84 394 - Normal
09/04/2026 12 AM PDT 11.81 372 - Normal
09/04/2026 01 AM PDT 11.79 358 - Normal
09/04/2026 02 AM PDT 11.76 337 - Normal
09/04/2026 03 AM PDT 11.74 324 - Normal
09/04/2026 04 AM PDT 11.72 312 - Normal
09/04/2026 05 AM PDT 11.70 300 - Normal
09/04/2026 06 AM PDT 11.68 281 - Normal
09/04/2026 07 AM PDT 11.68 281 0 Normal
09/04/2026 08 AM PDT 11.67 272 - Normal
09/04/2026 09 AM PDT 11.64 246 - Normal
09/04/2026 10 AM PDT 11.62 230 - Normal
09/04/2026 11 AM PDT 11.60 215 - Normal
09/04/2026 12 PM PDT 11.59 208 - Normal
09/04/2026 01 PM PDT 11.57 194 - Normal
09/04/2026 02 PM PDT 11.56 188 - Normal
09/04/2026 03 PM PDT 11.55 182 - Normal
09/04/2026 04 PM PDT 11.54 176 - Normal
09/04/2026 05 PM PDT 11.53 170 - Normal
09/04/2026 06 PM PDT 11.51 159 - Normal
09/04/2026 07 PM PDT 11.50 154 - Normal
09/04/2026 08 PM PDT 11.49 149 - Normal
09/04/2026 09 PM PDT 11.49 149 0 Normal
09/04/2026 10 PM PDT 11.48 144 - Normal
09/04/2026 11 PM PDT 11.47 139 - Normal
09/05/2026 12 AM PDT 11.46 134 - Normal
09/05/2026 01 AM PDT 11.46 134 0 Normal
09/05/2026 02 AM PDT 11.45 130 - Normal
09/05/2026 03 AM PDT 11.44 125 - Normal
09/05/2026 04 AM PDT 11.44 125 0 Normal
09/05/2026 05 AM PDT 11.44 125 0 Normal
09/05/2026 06 AM PDT 11.44 125 0 Normal
#
# FORECAST
#
# Date & Time (Local) Stage (Feet) Flow (cfs) Trend Forecast Status
# ---------------------------------------------------------------------------------
09/05/2026 07 AM PDT 11.44 125 Normal
09/05/2026 08 AM PDT 11.44 125 0 Normal
09/05/2026 09 AM PDT 11.44 125 0 Normal
09/05/2026 10 AM PDT 11.44 125 0 Normal
09/05/2026 11 AM PDT 11.44 125 0 Normal
09/05/2026 12 PM PDT 11.43 121 - Normal
09/05/2026 01 PM PDT 11.43 121 0 Normal
09/05/2026 02 PM PDT 11.43 121 0 Normal
09/05/2026 03 PM PDT 11.43 121 0 Normal
09/05/2026 04 PM PDT 11.43 121 0 Normal
09/05/2026 05 PM PDT 11.43 121 0 Normal
09/05/2026 06 PM PDT 11.43 121 0 Normal
09/05/2026 07 PM PDT 11.42 117 - Normal
09/05/2026 08 PM PDT 11.42 117 0 Normal
09/05/2026 09 PM PDT 11.42 117 0 Normal
09/05/2026 10 PM PDT 11.42 117 0 Normal
09/05/2026 11 PM PDT 11.42 117 0 Normal
09/06/2026 12 AM PDT 11.42 117 0 Normal
09/06/2026 01 AM PDT 11.41 113 - Normal
09/06/2026 02 AM PDT 11.41 113 0 Normal
09/06/2026 03 AM PDT 11.41 113 0 Normal
09/06/2026 04 AM PDT 11.41 113 0 Normal
09/06/2026 05 AM PDT 11.41 113 0 Normal
09/06/2026 06 AM PDT 11.41 113 0 Normal
09/06/2026 07 AM PDT 11.40 110 - Normal
09/06/2026 08 AM PDT 11.40 110 0 Normal
09/06/2026 09 AM PDT 11.40 110 0 Normal
09/06/2026 10 AM PDT 11.40 110 0 Normal
09/06/2026 11 AM PDT 11.40 110 0 Normal
09/06/2026 12 PM PDT 11.39 106 - Normal
09/06/2026 01 PM PDT 11.39 106 0 Normal
09/06/2026 02 PM PDT 11.39 106 0 Normal
09/06/2026 03 PM PDT 11.39 106 0 Normal
09/06/2026 04 PM PDT 11.38 102 - Normal
09/06/2026 05 PM PDT 11.38 102 0 Normal
09/06/2026 06 PM PDT 11.38 102 0 Normal
09/06/2026 07 PM PDT 11.38 102 0 Normal
09/06/2026 08 PM PDT 11.38 102 0 Normal
09/06/2026 09 PM PDT 11.37 99 - Normal
09/06/2026 10 PM PDT 11.37 99 0 Normal
09/06/2026 11 PM PDT 11.37 99 0 Normal
09/07/2026 12 AM PDT 11.37 99 0 Normal
09/07/2026 01 AM PDT 11.37 99 0 Normal
09/07/2026 02 AM PDT 11.36 96 - Normal
09/07/2026 03 AM PDT 11.36 96 0 Normal
09/07/2026 04 AM PDT 11.36 96 0 Normal
09/07/2026 05 AM PDT 11.36 96 0 Normal
09/07/2026 06 AM PDT 11.35 92 - Normal
09/07/2026 07 AM PDT 11.35 92 0 Normal
09/07/2026 08 AM PDT 11.35 92 0 Normal
09/07/2026 09 AM PDT 11.35 92 0 Normal
09/07/2026 10 AM PDT 11.34 89 - Normal
09/07/2026 11 AM PDT 11.34 89 0 Normal
09/07/2026 12 PM PDT 11.34 89 0 Normal
09/07/2026 01 PM PDT 11.33 86 - Normal
09/07/2026 02 PM PDT 11.33 86 0 Normal
09/07/2026 03 PM PDT 11.33 86 0 Normal
09/07/2026 04 PM PDT 11.33 86 0 Normal
09/07/2026 05 PM PDT 11.32 83 - Normal
09/07/2026 06 PM PDT 11.32 83 0 Normal
09/07/2026 07 PM PDT 11.32 83 0 Normal
09/07/2026 08 PM PDT 11.32 83 0 Normal
09/07/2026 09 PM PDT 11.31 81 - Normal
09/07/2026 10 PM PDT 11.31 81 0 Normal
09/07/2026 11 PM PDT 11.31 81 0 Normal
09/08/2026 12 AM PDT 11.30 78 - Normal
09/08/2026 01 AM PDT 11.30 78 0 Normal
09/08/2026 02 AM PDT 11.30 78 0 Normal
09/08/2026 03 AM PDT 11.30 78 0 Normal
09/08/2026 04 AM PDT 11.29 75 - Normal
09/08/2026 05 AM PDT 11.29 75 0 Normal
09/08/2026 06 AM PDT 11.29 75 0 Normal
09/08/2026 07 AM PDT 11.29 75 0 Normal
09/08/2026 08 AM PDT 11.28 73 - Normal
09/08/2026 09 AM PDT 11.28 73 0 Normal
09/08/2026 10 AM PDT 11.28 73 0 Normal
09/08/2026 11 AM PDT 11.28 73 0 Normal
09/08/2026 12 PM PDT 11.28 73 0 Normal
09/08/2026 01 PM PDT 11.28 73 0 Normal
09/08/2026 02 PM PDT 11.28 73 0 Normal
09/08/2026 03 PM PDT 11.28 73 0 Normal
09/08/2026 04 PM PDT 11.28 73 0 Normal
09/08/2026 05 PM PDT 11.28 73 0 Normal
09/08/2026 06 PM PDT 11.28 73 0 Normal
09/08/2026 07 PM PDT 11.28 73 0 Normal
09/08/2026 08 PM PDT 11.28 73 0 Normal
09/08/2026 09 PM PDT 11.28 73 0 Normal
09/08/2026 10 PM PDT 11.28 73 0 Normal
09/08/2026 11 PM PDT 11.28 73 0 Normal
09/09/2026 12 AM PDT 11.28 73 0 Normal
09/09/2026 01 AM PDT 11.28 73 0 Normal
09/09/2026 02 AM PDT 11.28 73 0 Normal
09/09/2026 03 AM PDT 11.28 73 0 Normal
09/09/2026 04 AM PDT 11.28 73 0 Normal
09/09/2026 05 AM PDT 11.28 73 0 Normal
09/09/2026 06 AM PDT 11.28 73 0 Normal
09/09/2026 07 AM PDT 11.28 73 0 Normal
09/09/2026 08 AM PDT 11.28 73 0 Normal
09/09/2026 09 AM PDT 11.28 73 0 Normal
09/09/2026 10 AM PDT 11.28 73 0 Normal
09/09/2026 11 AM PDT 11.28 73 0 Normal
09/09/2026 12 PM PDT 11.28 73 0 Normal
09/09/2026 01 PM PDT 11.28 73 0 Normal
09/09/2026 02 PM PDT 11.28 73 0 Normal
09/09/2026 03 PM PDT 11.28 73 0 Normal
09/09/2026 04 PM PDT 11.28 73 0 Normal
09/09/2026 05 PM PDT 11.28 73 0 Normal
09/09/2026 06 PM PDT 11.28 73 0 Normal
09/09/2026 07 PM PDT 11.28 73 0 Normal
09/09/2026 08 PM PDT 11.28 73 0 Normal
09/09/2026 09 PM PDT 11.28 73 0 Normal
09/09/2026 10 PM PDT 11.28 73 0 Normal
09/09/2026 11 PM PDT 11.28 73 0 Normal
09/10/2026 12 AM PDT 11.28 73 0 Normal
09/10/2026 01 AM PDT 11.28 73 0 Normal
09/10/2026 02 AM PDT 11.28 73 0 Normal
09/10/2026 03 AM PDT 11.28 73 0 Normal
09/10/2026 04 AM PDT 11.28 73 0 Normal
09/10/2026 05 AM PDT 11.28 73 0 Normal
#
# NOTE 1: Stages are rounded to the nearest hundredth (.01) of a foot.
# NOTE 2: Flows are rounded to the nearest (1) cfs.
# NOTE 3: Trends are determined using hourly change in unrounded stage and flow.
# NOTE 4: Maximum Values are determined using unrounded stage and flow.
|